Time;durP1;ratioP1;P1;durP2;ratioP2;P2;SDS_P1;SDS_P2;PMS_P1;PMS_P2;Temp;Humidity;BMP_temperature;BMP_pressure;BME280_temperature;BME280_humidity;BME280_pressure;Samples;Min_cycle;Max_cycle;Signal;HPM_P1;HPM_P2
2024/01/26 00:00:56;;;;;;;;;;;;;;;;;;2070942;28;19917;-81
2024/01/26 00:02:16;;;;;;;;;;;;;;;;;;2076290;28;19929;-81
2024/01/26 00:03:37;;;;;;;;;;;;;;;;;;2070746;28;19929;-80
2024/01/26 00:04:58;;;;;;;;;;;;;;;;;;2065513;28;19918;-81
2024/01/26 00:06:18;;;;;;;;;;;;;;;;;;2075612;28;19909;-80
2024/01/26 00:07:39;;;;;;;;;;;;;;;;;;2073210;28;19920;-79
2024/01/26 00:09:00;;;;;;;;;;;;;;;;;;2068510;28;19925;-80
2024/01/26 00:10:20;;;;;;;;;;;;;;;;;;2068137;28;20305;-80
2024/01/26 00:11:41;;;;;;;;;;;;;;;;;;2076770;28;19917;-80
2024/01/26 00:13:02;;;;;;;;;;;;;;;;;;2079879;28;19925;-80
2024/01/26 00:14:22;;;;;;;;;;;;;;;;;;2070098;28;19913;-77
2024/01/26 00:15:45;;;;;;;;;;;;;;;;;;2063154;28;19917;-77
2024/01/26 00:17:06;;;;;;;;;;;;;;;;;;2075138;28;19928;-78
2024/01/26 00:18:27;;;;;;;;;;;;;;;;;;2078276;28;20452;-77
2024/01/26 00:19:47;;;;;;;;;;;;;;;;;;2065015;28;20423;-77
2024/01/26 00:21:08;;;;;;;;;;;;;;;;;;2068551;28;19913;-77
2024/01/26 00:22:29;;;;;;;;;;;;;;;;;;2066639;28;20012;-77
2024/01/26 00:23:49;;;;;;;;;;;;;;;;;;2069526;28;19910;-77
2024/01/26 00:25:10;;;;;;;;;;;;;;;;;;2076582;28;19919;-78
2024/01/26 00:26:31;;;;;;;;;;;;;;;;;;2068460;28;19921;-77
2024/01/26 00:27:52;;;;;;;;;;;;;;;;;;2075021;28;19917;-77
2024/01/26 00:29:12;;;;;;;;;;;;;;;;;;2078307;28;19913;-77
2024/01/26 00:30:33;;;;;;;;;;;;;;;;;;2068270;28;20373;-77
2024/01/26 00:31:54;;;;;;;;;;;;;;;;;;2069057;28;19909;-77
2024/01/26 00:33:14;;;;;;;;;;;;;;;;;;2067892;28;19977;-77
2024/01/26 00:34:35;;;;;;;;;;;;;;;;;;2061593;28;19922;-77
2024/01/26 00:35:56;;;;;;;;;;;;;;;;;;2071979;28;19920;-77
2024/01/26 00:37:17;;;;;;;;;;;;;;;;;;2069656;28;19909;-77
2024/01/26 00:38:37;;;;;;;;;;;;;;;;;;2069565;28;19914;-78
2024/01/26 00:39:58;;;;;;;;;;;;;;;;;;2066509;28;19909;-77
2024/01/26 00:41:19;;;;;;;;;;;;;;;;;;2069843;28;19913;-77
2024/01/26 00:42:39;;;;;;;;;;;;;;;;;;2063993;28;20298;-77
2024/01/26 00:44:00;;;;;;;;;;;;;;;;;;2069204;28;19918;-77
2024/01/26 00:45:21;;;;;;;;;;;;;;;;;;2073048;28;19909;-78
2024/01/26 00:46:41;;;;;;;;;;;;;;;;;;2062516;28;20376;-77
2024/01/26 00:48:02;;;;;;;;;;;;;;;;;;2071105;28;19929;-77
2024/01/26 00:49:23;;;;;;;;;;;;;;;;;;2070688;28;19909;-77
2024/01/26 00:50:43;;;;;;;;;;;;;;;;;;2068827;28;19918;-77
2024/01/26 00:52:04;;;;;;;;;;;;;;;;;;2067790;28;19917;-78
2024/01/26 00:53:25;;;;;;;;;;;;;;;;;;2071415;28;19956;-78
2024/01/26 00:54:46;;;;;;;;;;;;;;;;;;2079615;28;20458;-77
2024/01/26 00:56:06;;;;;;;;;;;;;;;;;;2079192;28;20391;-77
2024/01/26 00:57:27;;;;;;;;;;;;;;;;;;2084515;28;19919;-77
2024/01/26 00:58:48;;;;;;;;;;;;;;;;;;2078616;28;19917;-77
2024/01/26 01:00:08;;;;;;;;;;;;;;;;;;2073698;28;19917;-77
2024/01/26 01:01:29;;;;;;;;;;;;;;;;;;2076210;28;19913;-77
2024/01/26 01:02:50;;;;;;;;;;;;;;;;;;2077606;28;19921;-77
2024/01/26 01:04:11;;;;;;;;;;;;;;;;;;2080244;28;19921;-77
2024/01/26 01:05:31;;;;;;;;;;;;;;;;;;2077475;28;19913;-77
2024/01/26 01:06:55;;;;;;;;;;;;;;;;;;2069177;28;19925;-78
2024/01/26 01:08:16;;;;;;;;;;;;;;;;;;2077889;28;19916;-76
2024/01/26 01:09:38;;;;;;;;;;;;;;;;;;2076625;28;19913;-78
2024/01/26 01:10:59;;;;;;;;;;;;;;;;;;2075659;28;19918;-77
2024/01/26 01:12:21;;;;;;;;;;;;;;;;;;2074740;28;19936;-77
2024/01/26 01:13:43;;;;;;;;;;;;;;;;;;2075422;28;19952;-77
2024/01/26 01:15:04;;;;;;;;;;;;;;;;;;2072681;28;19914;-77
2024/01/26 01:16:24;;;;;;;;;;;;;;;;;;2071816;28;19998;-77
2024/01/26 01:17:45;;;;;;;;;;;;;;;;;;2076970;28;19913;-78
2024/01/26 01:19:06;;;;;;;;;;;;;;;;;;2076840;28;20420;-78
2024/01/26 01:20:27;;;;;;;;;;;;;;;;;;2079686;28;19913;-77
2024/01/26 01:21:48;;;;;;;;;;;;;;;;;;2079201;28;20405;-78
2024/01/26 01:23:08;;;;;;;;;;;;;;;;;;2067138;28;19960;-78
2024/01/26 01:24:29;;;;;;;;;;;;;;;;;;2076732;28;19913;-79
2024/01/26 01:25:50;;;;;;;;;;;;;;;;;;2077090;28;20024;-78
2024/01/26 01:27:10;;;;;;;;;;;;;;;;;;2075734;28;19917;-78
2024/01/26 01:28:31;;;;;;;;;;;;;;;;;;2075834;28;19917;-78
2024/01/26 01:29:52;;;;;;;;;;;;;;;;;;2082064;28;20349;-77
2024/01/26 01:31:13;;;;;;;;;;;;;;;;;;2077533;28;19920;-78
2024/01/26 01:32:34;;;;;;;;;;;;;;;;;;2072108;28;19914;-78
2024/01/26 01:33:54;;;;;;;;;;;;;;;;;;2078257;28;19921;-78
2024/01/26 01:35:15;;;;;;;;;;;;;;;;;;2071367;28;19909;-78
2024/01/26 01:36:36;;;;;;;;;;;;;;;;;;2084969;28;19912;-78
2024/01/26 01:37:56;;;;;;;;;;;;;;;;;;2077754;28;19921;-78
2024/01/26 01:39:17;;;;;;;;;;;;;;;;;;2078630;28;20293;-78
2024/01/26 01:40:39;;;;;;;;;;;;;;;;;;2076266;28;19921;-78
2024/01/26 01:42:00;;;;;;;;;;;;;;;;;;2077621;28;19913;-78
2024/01/26 01:43:20;;;;;;;;;;;;;;;;;;2077843;28;19921;-78
2024/01/26 01:44:41;;;;;;;;;;;;;;;;;;2076742;28;19913;-77
2024/01/26 01:46:02;;;;;;;;;;;;;;;;;;2073150;28;19925;-78
2024/01/26 01:47:23;;;;;;;;;;;;;;;;;;2073839;28;19914;-78
2024/01/26 01:48:44;;;;;;;;;;;;;;;;;;2081590;28;20372;-78
2024/01/26 01:50:04;;;;;;;;;;;;;;;;;;2084708;28;19935;-78
2024/01/26 01:51:25;;;;;;;;;;;;;;;;;;2075299;28;19913;-77
2024/01/26 01:52:45;;;;;;;;;;;;;;;;;;2078249;28;19913;-78
2024/01/26 01:54:08;;;;;;;;;;;;;;;;;;2084984;28;21812;-78
2024/01/26 01:55:29;;;;;;;;;;;;;;;;;;2081019;28;19913;-78
2024/01/26 01:56:49;;;;;;;;;;;;;;;;;;2079955;28;20372;-78
2024/01/26 01:58:10;;;;;;;;;;;;;;;;;;2075445;28;19917;-78
2024/01/26 01:59:31;;;;;;;;;;;;;;;;;;2078219;28;19985;-77
2024/01/26 02:00:51;;;;;;;;;;;;;;;;;;2076480;28;20404;-77
2024/01/26 02:02:12;;;;;;;;;;;;;;;;;;2084930;28;19913;-78
2024/01/26 02:03:33;;;;;;;;;;;;;;;;;;2079029;28;20001;-77
2024/01/26 02:04:53;;;;;;;;;;;;;;;;;;2071503;28;19917;-78
2024/01/26 02:06:14;;;;;;;;;;;;;;;;;;2074962;28;19913;-78
2024/01/26 02:07:35;;;;;;;;;;;;;;;;;;2086694;28;20313;-78
2024/01/26 02:08:56;;;;;;;;;;;;;;;;;;2079378;28;19932;-78
2024/01/26 02:10:16;;;;;;;;;;;;;;;;;;2084089;28;19939;-77
2024/01/26 02:11:37;;;;;;;;;;;;;;;;;;2087431;28;19959;-77
2024/01/26 02:12:58;;;;;;;;;;;;;;;;;;2078736;28;19917;-77
2024/01/26 02:14:19;;;;;;;;;;;;;;;;;;2076331;28;20320;-78
2024/01/26 02:15:39;;;;;;;;;;;;;;;;;;2078925;28;19917;-78
2024/01/26 02:17:00;;;;;;;;;;;;;;;;;;2079701;28;19913;-78
2024/01/26 02:18:21;;;;;;;;;;;;;;;;;;2072121;28;19924;-79
2024/01/26 02:19:41;;;;;;;;;;;;;;;;;;2079623;28;19913;-78
2024/01/26 02:21:03;;;;;;;;;;;;;;;;;;2079781;28;19925;-76
2024/01/26 02:22:23;;;;;;;;;;;;;;;;;;2086175;28;19913;-78
2024/01/26 02:23:44;;;;;;;;;;;;;;;;;;2077968;28;19933;-78
2024/01/26 02:25:05;;;;;;;;;;;;;;;;;;2078447;28;20369;-77
2024/01/26 02:26:25;;;;;;;;;;;;;;;;;;2071346;28;19933;-78
2024/01/26 02:27:46;;;;;;;;;;;;;;;;;;2078958;28;20364;-78
2024/01/26 02:29:07;;;;;;;;;;;;;;;;;;2086611;28;20371;-77
2024/01/26 02:30:33;;;;;;;;;;;;;;;;;;2077052;28;19909;-78
2024/01/26 02:31:54;;;;;;;;;;;;;;;;;;2080316;28;20364;-77
2024/01/26 02:33:14;;;;;;;;;;;;;;;;;;2076953;28;19936;-78
2024/01/26 02:34:35;;;;;;;;;;;;;;;;;;2076901;28;19920;-78
2024/01/26 02:35:56;;;;;;;;;;;;;;;;;;2084720;28;19913;-83
2024/01/26 02:37:16;;;;;;;;;;;;;;;;;;2078300;28;19913;-83
2024/01/26 02:38:37;;;;;;;;;;;;;;;;;;2080409;28;19940;-83
2024/01/26 02:39:58;;;;;;;;;;;;;;;;;;2088177;28;19916;-83
2024/01/26 02:41:18;;;;;;;;;;;;;;;;;;2083642;28;19920;-83
2024/01/26 02:42:39;;;;;;;;;;;;;;;;;;2078027;28;20352;-83
2024/01/26 02:44:01;;;;;;;;;;;;;;;;;;2072100;28;19929;-83
2024/01/26 02:45:22;;;;;;;;;;;;;;;;;;2084884;28;19917;-83
2024/01/26 02:46:43;;;;;;;;;;;;;;;;;;2075986;28;20471;-83
2024/01/26 02:48:03;;;;;;;;;;;;;;;;;;2074972;28;19921;-82
2024/01/26 02:49:24;;;;;;;;;;;;;;;;;;2070552;28;19917;-83
2024/01/26 02:50:45;;;;;;;;;;;;;;;;;;2074050;28;19954;-84
2024/01/26 02:52:05;;;;;;;;;;;;;;;;;;2077970;28;19917;-82
2024/01/26 02:53:26;;;;;;;;;;;;;;;;;;2080125;28;19933;-83
2024/01/26 02:54:47;;;;;;;;;;;;;;;;;;2080242;28;19920;-83
2024/01/26 02:56:07;;;;;;;;;;;;;;;;;;2085014;28;19912;-83
2024/01/26 02:57:28;;;;;;;;;;;;;;;;;;2078797;28;19917;-80
2024/01/26 02:58:49;;;;;;;;;;;;;;;;;;2079852;28;19913;-83
2024/01/26 03:00:09;;;;;;;;;;;;;;;;;;2085558;28;19923;-83
2024/01/26 03:01:31;;;;;;;;;;;;;;;;;;2085426;28;19916;-83
2024/01/26 03:02:51;;;;;;;;;;;;;;;;;;2074953;28;19917;-83
2024/01/26 03:04:12;;;;;;;;;;;;;;;;;;2077523;28;19909;-82
2024/01/26 03:05:33;;;;;;;;;;;;;;;;;;2079567;28;20305;-83
2024/01/26 03:06:54;;;;;;;;;;;;;;;;;;2075790;28;19917;-83
2024/01/26 03:08:15;;;;;;;;;;;;;;;;;;2086061;28;19917;-82
2024/01/26 03:09:36;;;;;;;;;;;;;;;;;;2088325;28;19920;-86
2024/01/26 03:10:57;;;;;;;;;;;;;;;;;;2078722;28;20345;-82
2024/01/26 03:12:17;;;;;;;;;;;;;;;;;;2085423;28;19921;-83
2024/01/26 03:13:38;;;;;;;;;;;;;;;;;;2078903;28;20545;-83
2024/01/26 03:14:59;;;;;;;;;;;;;;;;;;2076905;28;19959;-83
2024/01/26 03:16:19;;;;;;;;;;;;;;;;;;2079611;28;20008;-84
2024/01/26 03:17:40;;;;;;;;;;;;;;;;;;2079886;28;19913;-84
2024/01/26 03:19:01;;;;;;;;;;;;;;;;;;2079945;28;20459;-82
2024/01/26 03:20:22;;;;;;;;;;;;;;;;;;2082488;28;19921;-83
2024/01/26 03:21:42;;;;;;;;;;;;;;;;;;2077044;28;20463;-84
2024/01/26 03:23:03;;;;;;;;;;;;;;;;;;2083653;28;19921;-83
2024/01/26 03:24:24;;;;;;;;;;;;;;;;;;2081030;28;19925;-84
2024/01/26 03:25:44;;;;;;;;;;;;;;;;;;2084847;28;19917;-83
2024/01/26 03:27:05;;;;;;;;;;;;;;;;;;2080566;28;19975;-83
2024/01/26 03:28:26;;;;;;;;;;;;;;;;;;2081337;28;19912;-83
2024/01/26 03:29:46;;;;;;;;;;;;;;;;;;2087951;28;19928;-84
2024/01/26 03:31:07;;;;;;;;;;;;;;;;;;2080174;28;19979;-83
2024/01/26 03:32:28;;;;;;;;;;;;;;;;;;2077126;28;19952;-83
2024/01/26 03:33:48;;;;;;;;;;;;;;;;;;2080682;28;19929;-85
2024/01/26 03:35:09;;;;;;;;;;;;;;;;;;2088710;28;19920;-83
2024/01/26 03:36:30;;;;;;;;;;;;;;;;;;2076446;28;20008;-83
2024/01/26 03:37:51;;;;;;;;;;;;;;;;;;2081593;28;20381;-83
2024/01/26 03:39:12;;;;;;;;;;;;;;;;;;2077851;28;19932;-82
2024/01/26 03:40:32;;;;;;;;;;;;;;;;;;2075993;28;20377;-84
2024/01/26 03:41:53;;;;;;;;;;;;;;;;;;2079016;28;19917;-84
2024/01/26 03:43:14;;;;;;;;;;;;;;;;;;2084525;28;19928;-83
2024/01/26 03:44:34;;;;;;;;;;;;;;;;;;2080184;28;19917;-83
2024/01/26 03:45:55;;;;;;;;;;;;;;;;;;2080464;28;19913;-77
2024/01/26 03:47:16;;;;;;;;;;;;;;;;;;2078487;28;19975;-78
2024/01/26 03:48:36;;;;;;;;;;;;;;;;;;2082969;28;19966;-78
2024/01/26 03:49:57;;;;;;;;;;;;;;;;;;2087443;28;19909;-78
2024/01/26 03:51:18;;;;;;;;;;;;;;;;;;2088235;28;20270;-78
2024/01/26 03:52:39;;;;;;;;;;;;;;;;;;2086662;28;19913;-77
2024/01/26 03:53:59;;;;;;;;;;;;;;;;;;2068930;28;19933;-78
2024/01/26 03:55:20;;;;;;;;;;;;;;;;;;2067056;28;19914;-78
2024/01/26 03:56:41;;;;;;;;;;;;;;;;;;2077817;28;19921;-77
2024/01/26 03:58:01;;;;;;;;;;;;;;;;;;2071000;28;20301;-78
2024/01/26 03:59:22;;;;;;;;;;;;;;;;;;2077762;28;19913;-78
2024/01/26 04:00:43;;;;;;;;;;;;;;;;;;2067289;28;20558;-78
2024/01/26 04:02:04;;;;;;;;;;;;;;;;;;2070961;28;19910;-78
2024/01/26 04:03:25;;;;;;;;;;;;;;;;;;2077863;28;19975;-78
2024/01/26 04:04:46;;;;;;;;;;;;;;;;;;2070263;28;19914;-78
2024/01/26 04:06:08;;;;;;;;;;;;;;;;;;2076233;28;20403;-77
2024/01/26 04:07:28;;;;;;;;;;;;;;;;;;2069351;28;20258;-78
2024/01/26 04:08:49;;;;;;;;;;;;;;;;;;2075266;28;20125;-78
2024/01/26 04:10:10;;;;;;;;;;;;;;;;;;2072036;28;19914;-78
2024/01/26 04:11:31;;;;;;;;;;;;;;;;;;2076919;28;19914;-78
2024/01/26 04:12:51;;;;;;;;;;;;;;;;;;2071922;28;20028;-78
2024/01/26 04:14:12;;;;;;;;;;;;;;;;;;2076773;28;19929;-78
2024/01/26 04:15:33;;;;;;;;;;;;;;;;;;2068893;28;19917;-78
2024/01/26 04:16:53;;;;;;;;;;;;;;;;;;2074308;28;19917;-78
2024/01/26 04:18:14;;;;;;;;;;;;;;;;;;2073597;28;19914;-78
2024/01/26 04:19:35;;;;;;;;;;;;;;;;;;2077852;28;20402;-78
2024/01/26 04:20:55;;;;;;;;;;;;;;;;;;2077098;28;19909;-78
2024/01/26 04:22:16;;;;;;;;;;;;;;;;;;2077773;28;20217;-80
2024/01/26 04:23:37;;;;;;;;;;;;;;;;;;2066149;28;19918;-77
2024/01/26 04:24:57;;;;;;;;;;;;;;;;;;2061989;28;20305;-78
2024/01/26 04:26:18;;;;;;;;;;;;;;;;;;2061190;28;19918;-77
2024/01/26 04:27:39;;;;;;;;;;;;;;;;;;2076941;28;19913;-77
2024/01/26 04:28:59;;;;;;;;;;;;;;;;;;2071891;28;20443;-78
2024/01/26 04:30:20;;;;;;;;;;;;;;;;;;2069166;28;19913;-78
2024/01/26 04:31:41;;;;;;;;;;;;;;;;;;2068415;28;19914;-77
2024/01/26 04:33:02;;;;;;;;;;;;;;;;;;2075186;28;19914;-77
2024/01/26 04:34:22;;;;;;;;;;;;;;;;;;2070637;28;20008;-78
2024/01/26 04:35:43;;;;;;;;;;;;;;;;;;2076378;28;19917;-77
2024/01/26 04:37:04;;;;;;;;;;;;;;;;;;2071219;28;19917;-78
2024/01/26 04:38:24;;;;;;;;;;;;;;;;;;2072100;28;20335;-78
2024/01/26 04:39:45;;;;;;;;;;;;;;;;;;2074123;28;20173;-78
2024/01/26 04:41:06;;;;;;;;;;;;;;;;;;2075116;28;19921;-78
2024/01/26 04:42:26;;;;;;;;;;;;;;;;;;2079960;28;19929;-78
2024/01/26 04:43:47;;;;;;;;;;;;;;;;;;2063198;28;20406;-79
2024/01/26 04:45:08;;;;;;;;;;;;;;;;;;2075430;28;19959;-78
2024/01/26 04:46:28;;;;;;;;;;;;;;;;;;2071335;28;20360;-78
2024/01/26 04:47:49;;;;;;;;;;;;;;;;;;2077087;28;20343;-78
2024/01/26 04:49:10;;;;;;;;;;;;;;;;;;2071606;28;19968;-77
2024/01/26 04:50:30;;;;;;;;;;;;;;;;;;2069513;28;19910;-77
2024/01/26 04:51:51;;;;;;;;;;;;;;;;;;2062093;28;19914;-78
2024/01/26 04:53:12;;;;;;;;;;;;;;;;;;2077836;28;19963;-77
2024/01/26 04:54:33;;;;;;;;;;;;;;;;;;2074436;28;20048;-77
2024/01/26 04:55:54;;;;;;;;;;;;;;;;;;2082285;28;20364;-77
2024/01/26 04:57:15;;;;;;;;;;;;;;;;;;2076258;28;20395;-85
2024/01/26 04:58:35;;;;;;;;;;;;;;;;;;2071746;28;19909;-83
2024/01/26 04:59:56;;;;;;;;;;;;;;;;;;2075725;28;20352;-85
2024/01/26 05:01:17;;;;;;;;;;;;;;;;;;2078795;28;19916;-82
2024/01/26 05:02:37;;;;;;;;;;;;;;;;;;2075764;28;19917;-84
2024/01/26 05:03:58;;;;;;;;;;;;;;;;;;2085165;28;19917;-83
2024/01/26 05:05:19;;;;;;;;;;;;;;;;;;2076222;28;20324;-82
2024/01/26 05:06:42;;;;;;;;;;;;;;;;;;2076764;28;19951;-83
2024/01/26 05:08:03;;;;;;;;;;;;;;;;;;2079773;28;19924;-82
2024/01/26 05:09:23;;;;;;;;;;;;;;;;;;2080220;28;19936;-85
2024/01/26 05:10:44;;;;;;;;;;;;;;;;;;2082981;28;19972;-84
2024/01/26 05:12:05;;;;;;;;;;;;;;;;;;2077355;28;19914;-83
2024/01/26 05:13:26;;;;;;;;;;;;;;;;;;2085273;28;20070;-85
2024/01/26 05:14:47;;;;;;;;;;;;;;;;;;2078686;28;19960;-84
2024/01/26 05:16:07;;;;;;;;;;;;;;;;;;2078560;28;19979;-84
2024/01/26 05:17:28;;;;;;;;;;;;;;;;;;2074589;28;19913;-83
2024/01/26 05:18:49;;;;;;;;;;;;;;;;;;2080737;28;19913;-84
2024/01/26 05:20:09;;;;;;;;;;;;;;;;;;2079068;28;20347;-83
2024/01/26 05:21:30;;;;;;;;;;;;;;;;;;2079260;28;19941;-83
2024/01/26 05:22:51;;;;;;;;;;;;;;;;;;2078686;28;19913;-84
2024/01/26 05:24:11;;;;;;;;;;;;;;;;;;2081233;28;19921;-83
2024/01/26 05:25:32;;;;;;;;;;;;;;;;;;2075330;28;19913;-81
2024/01/26 05:26:53;;;;;;;;;;;;;;;;;;2087093;28;20012;-84
2024/01/26 05:28:13;;;;;;;;;;;;;;;;;;2086777;28;19917;-84
2024/01/26 05:29:34;;;;;;;;;;;;;;;;;;2076386;28;19910;-84
2024/01/26 05:30:56;;;;;;;;;;;;;;;;;;2080313;28;20155;-83
2024/01/26 05:32:19;;;;;;;;;;;;;;;;;;2074101;28;20389;-85
2024/01/26 05:33:40;;;;;;;;;;;;;;;;;;2078362;28;19984;-83
2024/01/26 05:35:00;;;;;;;;;;;;;;;;;;2077918;28;20318;-84
2024/01/26 05:36:21;;;;;;;;;;;;;;;;;;2081342;28;20034;-84
2024/01/26 05:37:42;;;;;;;;;;;;;;;;;;2081499;28;20389;-81
2024/01/26 05:39:02;;;;;;;;;;;;;;;;;;2076339;28;19928;-83
2024/01/26 05:40:23;;;;;;;;;;;;;;;;;;2074255;28;19913;-83
2024/01/26 05:41:44;;;;;;;;;;;;;;;;;;2081438;28;19917;-83
2024/01/26 05:43:05;;;;;;;;;;;;;;;;;;2085744;28;20288;-82
2024/01/26 05:44:26;;;;;;;;;;;;;;;;;;2087588;28;19947;-83
2024/01/26 05:45:46;;;;;;;;;;;;;;;;;;2079869;28;19987;-83
2024/01/26 05:47:07;;;;;;;;;;;;;;;;;;2078753;28;19963;-83
2024/01/26 05:48:28;;;;;;;;;;;;;;;;;;2073973;28;20459;-82
2024/01/26 05:49:50;;;;;;;;;;;;;;;;;;2080902;28;20244;-84
2024/01/26 05:51:11;;;;;;;;;;;;;;;;;;2079549;28;19917;-82
2024/01/26 05:52:31;;;;;;;;;;;;;;;;;;2077642;28;19913;-82
2024/01/26 05:53:52;;;;;;;;;;;;;;;;;;2073376;28;20473;-83
2024/01/26 05:55:14;;;;;;;;;;;;;;;;;;2081142;28;19923;-83
2024/01/26 05:56:35;;;;;;;;;;;;;;;;;;2089519;28;20541;-83
2024/01/26 05:57:56;;;;;;;;;;;;;;;;;;2082537;28;19991;-84
2024/01/26 05:59:16;;;;;;;;;;;;;;;;;;2078609;28;20040;-83
2024/01/26 06:00:37;;;;;;;;;;;;;;;;;;2084198;28;19916;-83
2024/01/26 06:01:58;;;;;;;;;;;;;;;;;;2079628;28;19938;-83
2024/01/26 06:03:18;;;;;;;;;;;;;;;;;;2086225;28;19913;-84
2024/01/26 06:04:39;;;;;;;;;;;;;;;;;;2084960;28;19921;-83
2024/01/26 06:06:00;;;;;;;;;;;;;;;;;;2079220;28;19913;-79
2024/01/26 06:07:21;;;;;;;;;;;;;;;;;;2074020;28;19951;-79
2024/01/26 06:08:42;;;;;;;;;;;;;;;;;;2076358;28;19917;-79
2024/01/26 06:10:03;;;;;;;;;;;;;;;;;;2083289;28;20399;-79
2024/01/26 06:11:25;;;;;;;;;;;;;;;;;;2087554;28;19924;-79
2024/01/26 06:12:45;;;;;;;;;;;;;;;;;;2086266;28;20245;-79
2024/01/26 06:14:06;;;;;;;;;;;;;;;;;;2078970;28;19929;-79
2024/01/26 06:15:27;;;;;;;;;;;;;;;;;;2077070;28;19917;-80
2024/01/26 06:16:49;;;;;;;;;;;;;;;;;;2075237;28;19920;-80
2024/01/26 06:18:09;;;;;;;;;;;;;;;;;;2075802;28;20284;-80
2024/01/26 06:19:30;;;;;;;;;;;;;;;;;;2073298;28;19917;-80
2024/01/26 06:20:51;;;;;;;;;;;;;;;;;;2083960;28;19913;-80
2024/01/26 06:22:11;;;;;;;;;;;;;;;;;;2075867;28;19910;-80
2024/01/26 06:23:32;;;;;;;;;;;;;;;;;;2074782;28;20308;-79
2024/01/26 06:24:53;;;;;;;;;;;;;;;;;;2077116;28;19921;-79
2024/01/26 06:26:14;;;;;;;;;;;;;;;;;;2085431;28;20257;-78
2024/01/26 06:27:35;;;;;;;;;;;;;;;;;;2086517;28;19917;-79
2024/01/26 06:28:55;;;;;;;;;;;;;;;;;;2082054;28;19999;-79
2024/01/26 06:30:16;;;;;;;;;;;;;;;;;;2086010;28;19917;-79
2024/01/26 06:31:37;;;;;;;;;;;;;;;;;;2080721;28;20357;-80
2024/01/26 06:32:57;;;;;;;;;;;;;;;;;;2075746;28;19951;-79
2024/01/26 06:34:18;;;;;;;;;;;;;;;;;;2084837;28;19921;-79
2024/01/26 06:35:39;;;;;;;;;;;;;;;;;;2081490;28;20499;-79
2024/01/26 06:36:59;;;;;;;;;;;;;;;;;;2077117;28;19941;-79
2024/01/26 06:38:20;;;;;;;;;;;;;;;;;;2079964;28;19917;-79
2024/01/26 06:39:41;;;;;;;;;;;;;;;;;;2086622;28;19917;-78
2024/01/26 06:41:02;;;;;;;;;;;;;;;;;;2079212;28;20376;-79
2024/01/26 06:42:25;;;;;;;;;;;;;;;;;;2076068;28;19964;-80
2024/01/26 06:43:51;;;;;;;;;;;;;;;;;;2077284;28;19969;-78
2024/01/26 06:45:11;;;;;;;;;;;;;;;;;;2074978;28;19921;-78
2024/01/26 06:46:32;;;;;;;;;;;;;;;;;;2068473;28;19914;-78
2024/01/26 06:47:53;;;;;;;;;;;;;;;;;;2078059;28;20316;-78
2024/01/26 06:49:13;;;;;;;;;;;;;;;;;;2088363;28;19975;-77
2024/01/26 06:50:34;;;;;;;;;;;;;;;;;;2080687;28;19917;-78
2024/01/26 06:51:55;;;;;;;;;;;;;;;;;;2076597;28;19917;-79
2024/01/26 06:53:16;;;;;;;;;;;;;;;;;;2085448;28;20222;-79
2024/01/26 06:54:38;;;;;;;;;;;;;;;;;;2079631;28;19974;-79
2024/01/26 06:55:58;;;;;;;;;;;;;;;;;;2085682;28;19920;-79
2024/01/26 06:57:19;;;;;;;;;;;;;;;;;;2087854;28;20374;-79
2024/01/26 06:58:40;;;;;;;;;;;;;;;;;;2087303;28;19913;-79
2024/01/26 07:00:01;;;;;;;;;;;;;;;;;;2088407;28;19920;-78
2024/01/26 07:01:21;;;;;;;;;;;;;;;;;;2087949;28;19921;-80
2024/01/26 07:02:42;;;;;;;;;;;;;;;;;;2087924;28;19913;-79
2024/01/26 07:04:03;;;;;;;;;;;;;;;;;;2086676;28;19920;-77
2024/01/26 07:05:23;;;;;;;;;;;;;;;;;;2078242;28;20417;-77
2024/01/26 07:06:44;;;;;;;;;;;;;;;;;;2084361;28;19921;-77
2024/01/26 07:08:06;;;;;;;;;;;;;;;;;;2086921;28;19913;-77
2024/01/26 07:09:26;;;;;;;;;;;;;;;;;;2077669;28;19930;-77
2024/01/26 07:10:47;;;;;;;;;;;;;;;;;;2078349;28;19928;-78
2024/01/26 07:12:08;;;;;;;;;;;;;;;;;;2085646;28;19913;-78
2024/01/26 07:13:28;;;;;;;;;;;;;;;;;;2079283;28;19924;-78
2024/01/26 07:14:49;;;;;;;;;;;;;;;;;;2083878;28;19924;-79
2024/01/26 07:16:10;;;;;;;;;;;;;;;;;;2088187;28;19917;-79
2024/01/26 07:17:30;;;;;;;;;;;;;;;;;;2087986;28;20267;-83
2024/01/26 07:18:51;;;;;;;;;;;;;;;;;;2078414;28;19948;-80
2024/01/26 07:20:12;;;;;;;;;;;;;;;;;;2084630;28;19978;-84
2024/01/26 07:21:33;;;;;;;;;;;;;;;;;;2087999;28;19920;-84
2024/01/26 07:22:53;;;;;;;;;;;;;;;;;;2079106;28;19932;-82
2024/01/26 07:24:14;;;;;;;;;;;;;;;;;;2075817;28;19996;-84
2024/01/26 07:25:35;;;;;;;;;;;;;;;;;;2077726;28;19939;-85
2024/01/26 07:26:55;;;;;;;;;;;;;;;;;;2079709;28;19913;-85
2024/01/26 07:28:16;;;;;;;;;;;;;;;;;;2074846;28;19913;-84
2024/01/26 07:29:37;;;;;;;;;;;;;;;;;;2077521;28;19979;-85
2024/01/26 07:30:57;;;;;;;;;;;;;;;;;;2074909;28;19913;-83
2024/01/26 07:32:18;;;;;;;;;;;;;;;;;;2086929;28;19917;-85
2024/01/26 07:33:39;;;;;;;;;;;;;;;;;;2081559;28;19913;-86
2024/01/26 07:35:00;;;;;;;;;;;;;;;;;;2085430;28;19917;-87
2024/01/26 07:36:20;;;;;;;;;;;;;;;;;;2090153;28;19924;-86
2024/01/26 07:37:41;;;;;;;;;;;;;;;;;;2082030;28;19909;-87
2024/01/26 07:39:02;;;;;;;;;;;;;;;;;;2080793;28;19920;-88
2024/01/26 07:40:22;;;;;;;;;;;;;;;;;;2078314;28;19913;-88
2024/01/26 07:41:43;;;;;;;;;;;;;;;;;;2080553;28;20329;-86
2024/01/26 07:43:04;;;;;;;;;;;;;;;;;;2085553;28;19924;-87
2024/01/26 07:44:25;;;;;;;;;;;;;;;;;;2077065;28;19922;-86
2024/01/26 07:45:45;;;;;;;;;;;;;;;;;;2075329;28;20312;-85
2024/01/26 07:47:06;;;;;;;;;;;;;;;;;;2080765;28;20291;-86
2024/01/26 07:48:27;;;;;;;;;;;;;;;;;;2075366;28;19925;-86
2024/01/26 07:49:48;;;;;;;;;;;;;;;;;;2074825;28;19916;-87
2024/01/26 07:51:09;;;;;;;;;;;;;;;;;;2079649;28;19913;-85
2024/01/26 07:52:29;;;;;;;;;;;;;;;;;;2075464;28;19913;-85
2024/01/26 07:53:50;;;;;;;;;;;;;;;;;;2077419;28;19953;-82
2024/01/26 07:55:11;;;;;;;;;;;;;;;;;;2080832;28;20411;-85
2024/01/26 07:56:31;;;;;;;;;;;;;;;;;;2082013;28;20395;-81
2024/01/26 07:57:52;;;;;;;;;;;;;;;;;;2075718;28;19921;-84
2024/01/26 07:59:13;;;;;;;;;;;;;;;;;;2086931;28;19916;-87
2024/01/26 08:00:33;;;;;;;;;;;;;;;;;;2089369;28;19913;-85
2024/01/26 08:01:54;;;;;;;;;;;;;;;;;;2081703;28;20376;-85
2024/01/26 08:03:15;;;;;;;;;;;;;;;;;;2076261;28;19917;-87
2024/01/26 08:04:35;;;;;;;;;;;;;;;;;;2080827;28;19925;-86
2024/01/26 08:05:56;;;;;;;;;;;;;;;;;;2082278;28;19920;-85
2024/01/26 08:07:17;;;;;;;;;;;;;;;;;;2087963;28;20364;-87
2024/01/26 08:08:37;;;;;;;;;;;;;;;;;;2073531;28;19917;-86
2024/01/26 08:09:58;;;;;;;;;;;;;;;;;;2074521;28;19914;-87
2024/01/26 08:11:19;;;;;;;;;;;;;;;;;;2086476;28;19915;-87
2024/01/26 08:12:40;;;;;;;;;;;;;;;;;;2075601;28;19913;-87
2024/01/26 08:14:02;;;;;;;;;;;;;;;;;;2072178;28;20400;-86
2024/01/26 08:15:22;;;;;;;;;;;;;;;;;;2080652;28;19931;-86
2024/01/26 08:16:43;;;;;;;;;;;;;;;;;;2077533;28;19909;-84
2024/01/26 08:18:04;;;;;;;;;;;;;;;;;;2077595;28;19921;-85
2024/01/26 08:19:24;;;;;;;;;;;;;;;;;;2069424;28;19913;-85
2024/01/26 08:20:45;;;;;;;;;;;;;;;;;;2080670;28;20365;-82
2024/01/26 08:22:06;;;;;;;;;;;;;;;;;;2086995;28;19931;-86
2024/01/26 08:23:26;;;;;;;;;;;;;;;;;;2076296;28;19917;-85
2024/01/26 08:24:47;;;;;;;;;;;;;;;;;;2078127;28;19921;-87
2024/01/26 08:26:08;;;;;;;;;;;;;;;;;;2071314;28;20294;-87
2024/01/26 08:27:29;;;;;;;;;;;;;;;;;;2083174;28;19917;-85
2024/01/26 08:28:49;;;;;;;;;;;;;;;;;;2079559;28;19917;-78
2024/01/26 08:30:10;;;;;;;;;;;;;;;;;;2073615;28;19917;-78
2024/01/26 08:31:31;;;;;;;;;;;;;;;;;;2074934;28;19909;-78
2024/01/26 08:32:51;;;;;;;;;;;;;;;;;;2076432;28;19909;-78
2024/01/26 08:34:12;;;;;;;;;;;;;;;;;;2076035;28;19972;-77
2024/01/26 08:35:33;;;;;;;;;;;;;;;;;;2076065;28;19921;-78
2024/01/26 08:36:53;;;;;;;;;;;;;;;;;;2084977;28;19920;-77
2024/01/26 08:38:14;;;;;;;;;;;;;;;;;;2081041;28;20346;-79
2024/01/26 08:39:35;;;;;;;;;;;;;;;;;;2078122;28;19913;-78
2024/01/26 08:40:56;;;;;;;;;;;;;;;;;;2085708;28;19909;-78
2024/01/26 08:42:17;;;;;;;;;;;;;;;;;;2079616;28;20347;-78
2024/01/26 08:43:37;;;;;;;;;;;;;;;;;;2073940;28;19909;-78
2024/01/26 08:44:58;;;;;;;;;;;;;;;;;;2073404;28;19928;-78
2024/01/26 08:46:20;;;;;;;;;;;;;;;;;;2077791;28;19909;-78
2024/01/26 08:47:41;;;;;;;;;;;;;;;;;;2084682;28;19909;-78
2024/01/26 08:49:02;;;;;;;;;;;;;;;;;;2081520;28;19916;-78
2024/01/26 08:50:23;;;;;;;;;;;;;;;;;;2077524;28;19913;-78
2024/01/26 08:51:44;;;;;;;;;;;;;;;;;;2087171;28;19951;-78
2024/01/26 08:53:04;;;;;;;;;;;;;;;;;;2085544;28;19921;-78
2024/01/26 08:54:25;;;;;;;;;;;;;;;;;;2089486;28;19913;-79
2024/01/26 08:55:46;;;;;;;;;;;;;;;;;;2072620;28;20336;-77
2024/01/26 08:57:06;;;;;;;;;;;;;;;;;;2082784;28;19916;-78
2024/01/26 08:58:28;;;;;;;;;;;;;;;;;;2082021;28;20460;-78
2024/01/26 08:59:48;;;;;;;;;;;;;;;;;;2072945;28;19920;-78
2024/01/26 09:01:09;;;;;;;;;;;;;;;;;;2078976;28;20408;-78
2024/01/26 09:02:30;;;;;;;;;;;;;;;;;;2074077;28;19909;-78
2024/01/26 09:03:50;;;;;;;;;;;;;;;;;;2080074;28;19913;-78
2024/01/26 09:05:11;;;;;;;;;;;;;;;;;;2079632;28;19924;-78
2024/01/26 09:06:32;;;;;;;;;;;;;;;;;;2080508;28;19917;-77
2024/01/26 09:07:53;;;;;;;;;;;;;;;;;;2079588;28;19920;-77
2024/01/26 09:09:14;;;;;;;;;;;;;;;;;;2079199;28;20009;-77
2024/01/26 09:10:35;;;;;;;;;;;;;;;;;;2076901;28;19917;-77
2024/01/26 09:11:55;;;;;;;;;;;;;;;;;;2080443;28;19917;-78